sensor_id;sensor_type;location;lat;lon;timestamp;P1;durP1;ratioP1;P2;durP2;ratioP2
55065;SDS011;40964;42.114;24.220;2024-03-08T00:00:10;59.03;;;21.33;;
55065;SDS011;40964;42.114;24.220;2024-03-08T00:02:40;54.67;;;19.95;;
55065;SDS011;40964;42.114;24.220;2024-03-08T00:05:07;52.30;;;19.98;;
55065;SDS011;40964;42.114;24.220;2024-03-08T00:07:36;66.07;;;22.48;;
55065;SDS011;40964;42.114;24.220;2024-03-08T00:10:02;58.42;;;20.85;;
55065;SDS011;40964;42.114;24.220;2024-03-08T00:12:29;66.68;;;22.77;;
55065;SDS011;40964;42.114;24.220;2024-03-08T00:14:54;70.38;;;23.42;;
55065;SDS011;40964;42.114;24.220;2024-03-08T00:17:20;67.60;;;22.02;;
55065;SDS011;40964;42.114;24.220;2024-03-08T00:19:48;74.03;;;23.13;;
55065;SDS011;40964;42.114;24.220;2024-03-08T00:22:15;76.20;;;25.25;;
55065;SDS011;40964;42.114;24.220;2024-03-08T00:27:16;76.50;;;24.17;;
55065;SDS011;40964;42.114;24.220;2024-03-08T00:29:41;77.70;;;24.90;;
55065;SDS011;40964;42.114;24.220;2024-03-08T00:32:07;75.68;;;23.83;;
55065;SDS011;40964;42.114;24.220;2024-03-08T00:34:36;79.47;;;24.92;;
55065;SDS011;40964;42.114;24.220;2024-03-08T00:37:02;79.57;;;25.30;;
55065;SDS011;40964;42.114;24.220;2024-03-08T00:39:28;75.35;;;22.80;;
55065;SDS011;40964;42.114;24.220;2024-03-08T00:41:54;67.13;;;19.92;;
55065;SDS011;40964;42.114;24.220;2024-03-08T00:44:20;67.32;;;20.13;;
55065;SDS011;40964;42.114;24.220;2024-03-08T00:46:45;66.65;;;19.70;;
55065;SDS011;40964;42.114;24.220;2024-03-08T00:49:11;77.93;;;22.80;;
55065;SDS011;40964;42.114;24.220;2024-03-08T00:51:37;66.22;;;20.42;;
55065;SDS011;40964;42.114;24.220;2024-03-08T00:54:03;83.38;;;21.95;;
55065;SDS011;40964;42.114;24.220;2024-03-08T00:56:28;102.32;;;23.58;;
55065;SDS011;40964;42.114;24.220;2024-03-08T00:58:54;84.78;;;24.48;;
55065;SDS011;40964;42.114;24.220;2024-03-08T01:01:19;84.25;;;23.75;;
55065;SDS011;40964;42.114;24.220;2024-03-08T01:03:45;88.15;;;25.17;;
55065;SDS011;40964;42.114;24.220;2024-03-08T01:06:10;83.95;;;25.42;;
55065;SDS011;40964;42.114;24.220;2024-03-08T01:08:36;97.35;;;27.17;;
55065;SDS011;40964;42.114;24.220;2024-03-08T01:11:03;97.18;;;25.80;;
55065;SDS011;40964;42.114;24.220;2024-03-08T01:13:30;92.93;;;25.77;;
55065;SDS011;40964;42.114;24.220;2024-03-08T01:15:55;83.82;;;23.40;;
55065;SDS011;40964;42.114;24.220;2024-03-08T01:18:21;87.60;;;25.38;;
55065;SDS011;40964;42.114;24.220;2024-03-08T01:20:47;93.70;;;26.92;;
55065;SDS011;40964;42.114;24.220;2024-03-08T01:23:12;99.95;;;26.48;;
55065;SDS011;40964;42.114;24.220;2024-03-08T01:25:38;92.50;;;24.13;;
55065;SDS011;40964;42.114;24.220;2024-03-08T01:28:04;92.32;;;25.67;;
55065;SDS011;40964;42.114;24.220;2024-03-08T01:30:29;87.90;;;25.52;;
55065;SDS011;40964;42.114;24.220;2024-03-08T01:32:59;85.13;;;24.45;;
55065;SDS011;40964;42.114;24.220;2024-03-08T01:35:25;83.35;;;24.20;;
55065;SDS011;40964;42.114;24.220;2024-03-08T01:37:52;83.60;;;22.45;;
55065;SDS011;40964;42.114;24.220;2024-03-08T01:40:17;59.22;;;18.75;;
55065;SDS011;40964;42.114;24.220;2024-03-08T01:42:43;57.15;;;18.05;;
55065;SDS011;40964;42.114;24.220;2024-03-08T01:45:10;79.38;;;20.80;;
55065;SDS011;40964;42.114;24.220;2024-03-08T01:47:35;55.63;;;18.17;;
55065;SDS011;40964;42.114;24.220;2024-03-08T01:50:02;66.65;;;17.88;;
55065;SDS011;40964;42.114;24.220;2024-03-08T01:52:29;63.08;;;20.90;;
55065;SDS011;40964;42.114;24.220;2024-03-08T01:54:57;72.45;;;18.73;;
55065;SDS011;40964;42.114;24.220;2024-03-08T01:57:26;60.55;;;18.88;;
55065;SDS011;40964;42.114;24.220;2024-03-08T01:59:53;58.15;;;19.13;;
55065;SDS011;40964;42.114;24.220;2024-03-08T02:02:21;56.25;;;18.95;;
55065;SDS011;40964;42.114;24.220;2024-03-08T02:04:47;59.47;;;19.48;;
55065;SDS011;40964;42.114;24.220;2024-03-08T02:07:12;57.08;;;18.98;;
55065;SDS011;40964;42.114;24.220;2024-03-08T02:09:38;71.40;;;18.75;;
55065;SDS011;40964;42.114;24.220;2024-03-08T02:12:04;56.88;;;18.85;;
55065;SDS011;40964;42.114;24.220;2024-03-08T02:14:31;50.97;;;19.58;;
55065;SDS011;40964;42.114;24.220;2024-03-08T02:17:00;47.40;;;18.05;;
55065;SDS011;40964;42.114;24.220;2024-03-08T02:19:26;51.03;;;17.63;;
55065;SDS011;40964;42.114;24.220;2024-03-08T02:21:51;41.70;;;16.70;;
55065;SDS011;40964;42.114;24.220;2024-03-08T02:24:16;50.65;;;19.13;;
55065;SDS011;40964;42.114;24.220;2024-03-08T02:26:42;54.35;;;19.48;;
55065;SDS011;40964;42.114;24.220;2024-03-08T02:29:08;55.53;;;19.08;;
55065;SDS011;40964;42.114;24.220;2024-03-08T02:31:34;98.07;;;20.23;;
55065;SDS011;40964;42.114;24.220;2024-03-08T02:34:00;181.65;;;23.63;;
55065;SDS011;40964;42.114;24.220;2024-03-08T02:36:25;137.48;;;22.42;;
55065;SDS011;40964;42.114;24.220;2024-03-08T02:38:51;182.30;;;23.65;;
55065;SDS011;40964;42.114;24.220;2024-03-08T02:41:16;125.38;;;22.25;;
55065;SDS011;40964;42.114;24.220;2024-03-08T02:43:41;132.18;;;23.23;;
55065;SDS011;40964;42.114;24.220;2024-03-08T02:46:07;97.05;;;22.67;;
55065;SDS011;40964;42.114;24.220;2024-03-08T02:48:33;150.35;;;22.40;;
55065;SDS011;40964;42.114;24.220;2024-03-08T02:50:58;176.77;;;24.60;;
55065;SDS011;40964;42.114;24.220;2024-03-08T02:53:24;110.97;;;23.40;;
55065;SDS011;40964;42.114;24.220;2024-03-08T02:55:49;89.57;;;22.35;;
55065;SDS011;40964;42.114;24.220;2024-03-08T02:58:15;66.43;;;21.23;;
55065;SDS011;40964;42.114;24.220;2024-03-08T03:00:40;140.00;;;22.40;;
55065;SDS011;40964;42.114;24.220;2024-03-08T03:03:06;86.10;;;21.80;;
55065;SDS011;40964;42.114;24.220;2024-03-08T03:05:32;170.63;;;23.80;;
55065;SDS011;40964;42.114;24.220;2024-03-08T03:07:58;84.05;;;22.48;;
55065;SDS011;40964;42.114;24.220;2024-03-08T03:10:24;72.65;;;20.88;;
55065;SDS011;40964;42.114;24.220;2024-03-08T03:12:51;106.90;;;23.10;;
55065;SDS011;40964;42.114;24.220;2024-03-08T03:15:17;93.78;;;22.25;;
55065;SDS011;40964;42.114;24.220;2024-03-08T03:17:46;82.82;;;21.88;;
55065;SDS011;40964;42.114;24.220;2024-03-08T03:20:12;83.70;;;22.23;;
55065;SDS011;40964;42.114;24.220;2024-03-08T03:22:39;70.28;;;22.48;;
55065;SDS011;40964;42.114;24.220;2024-03-08T03:27:39;88.38;;;22.75;;
55065;SDS011;40964;42.114;24.220;2024-03-08T03:30:07;74.22;;;21.40;;
55065;SDS011;40964;42.114;24.220;2024-03-08T03:32:48;114.15;;;22.50;;
55065;SDS011;40964;42.114;24.220;2024-03-08T03:35:15;76.78;;;21.52;;
55065;SDS011;40964;42.114;24.220;2024-03-08T03:37:41;108.03;;;25.25;;
55065;SDS011;40964;42.114;24.220;2024-03-08T03:40:08;104.82;;;22.60;;
55065;SDS011;40964;42.114;24.220;2024-03-08T03:42:34;96.72;;;25.55;;
55065;SDS011;40964;42.114;24.220;2024-03-08T03:45:00;95.60;;;22.55;;
55065;SDS011;40964;42.114;24.220;2024-03-08T03:47:25;104.88;;;23.70;;
55065;SDS011;40964;42.114;24.220;2024-03-08T03:49:52;133.23;;;23.65;;
55065;SDS011;40964;42.114;24.220;2024-03-08T03:52:19;109.82;;;23.92;;
55065;SDS011;40964;42.114;24.220;2024-03-08T03:54:44;110.95;;;23.08;;
55065;SDS011;40964;42.114;24.220;2024-03-08T03:57:10;76.68;;;22.17;;
55065;SDS011;40964;42.114;24.220;2024-03-08T03:59:35;82.22;;;19.42;;
55065;SDS011;40964;42.114;24.220;2024-03-08T04:02:00;142.48;;;22.88;;
55065;SDS011;40964;42.114;24.220;2024-03-08T04:04:26;82.82;;;21.85;;
55065;SDS011;40964;42.114;24.220;2024-03-08T04:06:51;75.50;;;20.92;;
55065;SDS011;40964;42.114;24.220;2024-03-08T04:09:17;72.05;;;21.55;;
55065;SDS011;40964;42.114;24.220;2024-03-08T04:11:44;84.65;;;22.63;;
55065;SDS011;40964;42.114;24.220;2024-03-08T04:14:10;77.75;;;21.77;;
55065;SDS011;40964;42.114;24.220;2024-03-08T04:16:35;75.72;;;20.73;;
55065;SDS011;40964;42.114;24.220;2024-03-08T04:19:02;81.93;;;22.92;;
55065;SDS011;40964;42.114;24.220;2024-03-08T04:21:32;101.93;;;23.85;;
55065;SDS011;40964;42.114;24.220;2024-03-08T04:23:57;110.68;;;24.27;;
55065;SDS011;40964;42.114;24.220;2024-03-08T04:26:23;161.07;;;26.83;;
55065;SDS011;40964;42.114;24.220;2024-03-08T04:28:48;124.35;;;24.75;;
55065;SDS011;40964;42.114;24.220;2024-03-08T04:31:13;108.85;;;22.77;;
55065;SDS011;40964;42.114;24.220;2024-03-08T04:33:40;148.65;;;23.92;;
55065;SDS011;40964;42.114;24.220;2024-03-08T04:36:06;85.75;;;23.15;;
55065;SDS011;40964;42.114;24.220;2024-03-08T04:38:32;173.48;;;25.08;;
55065;SDS011;40964;42.114;24.220;2024-03-08T04:40:58;112.90;;;24.17;;
55065;SDS011;40964;42.114;24.220;2024-03-08T04:43:24;88.25;;;22.35;;
55065;SDS011;40964;42.114;24.220;2024-03-08T04:45:51;113.75;;;22.88;;
55065;SDS011;40964;42.114;24.220;2024-03-08T04:48:18;110.78;;;23.40;;
55065;SDS011;40964;42.114;24.220;2024-03-08T04:50:44;92.20;;;24.02;;
55065;SDS011;40964;42.114;24.220;2024-03-08T04:53:10;88.20;;;24.63;;
55065;SDS011;40964;42.114;24.220;2024-03-08T04:55:35;92.18;;;22.58;;
55065;SDS011;40964;42.114;24.220;2024-03-08T04:58:02;90.40;;;22.42;;
55065;SDS011;40964;42.114;24.220;2024-03-08T05:00:29;88.65;;;25.50;;
55065;SDS011;40964;42.114;24.220;2024-03-08T05:02:55;93.32;;;26.73;;
55065;SDS011;40964;42.114;24.220;2024-03-08T05:05:20;117.53;;;31.25;;
55065;SDS011;40964;42.114;24.220;2024-03-08T05:07:47;94.43;;;24.33;;
55065;SDS011;40964;42.114;24.220;2024-03-08T05:10:13;91.40;;;26.17;;
55065;SDS011;40964;42.114;24.220;2024-03-08T05:12:42;79.30;;;23.10;;
55065;SDS011;40964;42.114;24.220;2024-03-08T05:15:08;71.28;;;21.48;;
55065;SDS011;40964;42.114;24.220;2024-03-08T05:17:33;179.68;;;59.30;;
55065;SDS011;40964;42.114;24.220;2024-03-08T05:19:59;84.47;;;26.55;;
55065;SDS011;40964;42.114;24.220;2024-03-08T05:22:24;78.35;;;25.40;;
55065;SDS011;40964;42.114;24.220;2024-03-08T05:24:51;69.30;;;21.00;;
55065;SDS011;40964;42.114;24.220;2024-03-08T05:27:16;63.35;;;21.20;;
55065;SDS011;40964;42.114;24.220;2024-03-08T05:29:42;74.65;;;22.23;;
55065;SDS011;40964;42.114;24.220;2024-03-08T05:32:07;66.88;;;21.67;;
55065;SDS011;40964;42.114;24.220;2024-03-08T05:34:33;78.53;;;20.67;;
55065;SDS011;40964;42.114;24.220;2024-03-08T05:36:58;77.40;;;21.80;;
55065;SDS011;40964;42.114;24.220;2024-03-08T05:39:25;74.45;;;22.52;;
55065;SDS011;40964;42.114;24.220;2024-03-08T05:41:50;66.07;;;20.02;;
55065;SDS011;40964;42.114;24.220;2024-03-08T05:44:16;74.15;;;21.92;;
55065;SDS011;40964;42.114;24.220;2024-03-08T05:46:44;61.58;;;21.48;;
55065;SDS011;40964;42.114;24.220;2024-03-08T05:49:11;88.55;;;21.75;;
55065;SDS011;40964;42.114;24.220;2024-03-08T05:51:37;60.78;;;18.73;;
55065;SDS011;40964;42.114;24.220;2024-03-08T05:54:07;65.10;;;19.33;;
55065;SDS011;40964;42.114;24.220;2024-03-08T05:56:36;57.50;;;18.80;;
55065;SDS011;40964;42.114;24.220;2024-03-08T05:59:03;59.45;;;19.30;;
55065;SDS011;40964;42.114;24.220;2024-03-08T06:01:28;54.15;;;17.35;;
55065;SDS011;40964;42.114;24.220;2024-03-08T06:03:54;66.85;;;21.60;;
55065;SDS011;40964;42.114;24.220;2024-03-08T06:06:22;91.45;;;34.45;;
55065;SDS011;40964;42.114;24.220;2024-03-08T06:08:48;80.80;;;27.80;;
55065;SDS011;40964;42.114;24.220;2024-03-08T06:11:17;79.13;;;29.90;;
55065;SDS011;40964;42.114;24.220;2024-03-08T06:13:47;75.03;;;24.05;;
55065;SDS011;40964;42.114;24.220;2024-03-08T06:16:13;71.10;;;25.25;;
55065;SDS011;40964;42.114;24.220;2024-03-08T06:18:38;68.68;;;22.40;;
55065;SDS011;40964;42.114;24.220;2024-03-08T06:21:07;69.93;;;22.90;;
55065;SDS011;40964;42.114;24.220;2024-03-08T06:23:37;66.65;;;22.48;;
55065;SDS011;40964;42.114;24.220;2024-03-08T06:26:03;59.50;;;19.25;;
55065;SDS011;40964;42.114;24.220;2024-03-08T06:28:30;62.90;;;19.30;;
55065;SDS011;40964;42.114;24.220;2024-03-08T06:30:57;58.85;;;21.80;;
55065;SDS011;40964;42.114;24.220;2024-03-08T06:33:26;62.80;;;22.98;;
55065;SDS011;40964;42.114;24.220;2024-03-08T06:35:53;64.28;;;23.55;;
55065;SDS011;40964;42.114;24.220;2024-03-08T06:38:19;68.57;;;27.38;;
55065;SDS011;40964;42.114;24.220;2024-03-08T06:40:45;118.32;;;41.40;;
55065;SDS011;40964;42.114;24.220;2024-03-08T06:43:13;94.90;;;31.52;;
55065;SDS011;40964;42.114;24.220;2024-03-08T06:45:43;84.00;;;29.27;;
55065;SDS011;40964;42.114;24.220;2024-03-08T06:48:14;63.03;;;24.48;;
55065;SDS011;40964;42.114;24.220;2024-03-08T06:50:40;64.05;;;23.70;;
55065;SDS011;40964;42.114;24.220;2024-03-08T06:53:05;47.35;;;19.45;;
55065;SDS011;40964;42.114;24.220;2024-03-08T06:55:31;58.55;;;19.88;;
55065;SDS011;40964;42.114;24.220;2024-03-08T06:57:58;53.50;;;19.08;;
55065;SDS011;40964;42.114;24.220;2024-03-08T07:00:23;37.42;;;16.02;;
55065;SDS011;40964;42.114;24.220;2024-03-08T07:02:52;42.97;;;15.00;;
55065;SDS011;40964;42.114;24.220;2024-03-08T07:05:18;39.97;;;15.57;;
55065;SDS011;40964;42.114;24.220;2024-03-08T07:07:44;45.42;;;16.42;;
55065;SDS011;40964;42.114;24.220;2024-03-08T07:10:10;42.40;;;15.30;;
55065;SDS011;40964;42.114;24.220;2024-03-08T07:12:36;53.67;;;18.08;;
55065;SDS011;40964;42.114;24.220;2024-03-08T07:15:03;43.55;;;16.52;;
55065;SDS011;40964;42.114;24.220;2024-03-08T07:17:30;48.42;;;18.90;;
55065;SDS011;40964;42.114;24.220;2024-03-08T07:19:56;37.25;;;14.93;;
55065;SDS011;40964;42.114;24.220;2024-03-08T07:22:24;32.05;;;12.73;;
55065;SDS011;40964;42.114;24.220;2024-03-08T07:24:49;34.28;;;12.90;;
55065;SDS011;40964;42.114;24.220;2024-03-08T07:27:35;28.83;;;11.80;;
55065;SDS011;40964;42.114;24.220;2024-03-08T07:30:01;47.10;;;18.40;;
55065;SDS011;40964;42.114;24.220;2024-03-08T07:32:28;41.05;;;17.65;;
55065;SDS011;40964;42.114;24.220;2024-03-08T07:34:55;49.42;;;15.88;;
55065;SDS011;40964;42.114;24.220;2024-03-08T07:37:21;37.90;;;15.05;;
55065;SDS011;40964;42.114;24.220;2024-03-08T07:39:46;25.65;;;11.35;;
55065;SDS011;40964;42.114;24.220;2024-03-08T07:42:12;34.10;;;11.85;;
55065;SDS011;40964;42.114;24.220;2024-03-08T07:44:38;31.45;;;13.13;;
55065;SDS011;40964;42.114;24.220;2024-03-08T07:47:04;35.25;;;13.65;;
55065;SDS011;40964;42.114;24.220;2024-03-08T07:49:29;27.77;;;12.07;;
55065;SDS011;40964;42.114;24.220;2024-03-08T07:51:58;29.05;;;11.68;;
55065;SDS011;40964;42.114;24.220;2024-03-08T07:54:24;23.58;;;11.02;;
55065;SDS011;40964;42.114;24.220;2024-03-08T07:56:50;26.98;;;10.80;;
55065;SDS011;40964;42.114;24.220;2024-03-08T07:59:16;28.70;;;10.70;;
55065;SDS011;40964;42.114;24.220;2024-03-08T08:01:41;25.00;;;10.65;;
55065;SDS011;40964;42.114;24.220;2024-03-08T08:04:09;28.27;;;11.85;;
55065;SDS011;40964;42.114;24.220;2024-03-08T08:06:37;50.33;;;17.70;;
55065;SDS011;40964;42.114;24.220;2024-03-08T08:09:07;35.15;;;13.10;;
55065;SDS011;40964;42.114;24.220;2024-03-08T08:11:39;37.40;;;15.52;;
55065;SDS011;40964;42.114;24.220;2024-03-08T08:14:11;45.05;;;16.77;;
55065;SDS011;40964;42.114;24.220;2024-03-08T08:16:37;40.67;;;15.90;;
55065;SDS011;40964;42.114;24.220;2024-03-08T08:19:03;56.63;;;20.55;;
55065;SDS011;40964;42.114;24.220;2024-03-08T08:21:35;24.80;;;10.35;;
55065;SDS011;40964;42.114;24.220;2024-03-08T08:24:02;25.20;;;11.07;;
55065;SDS011;40964;42.114;24.220;2024-03-08T08:26:28;21.83;;;9.48;;
55065;SDS011;40964;42.114;24.220;2024-03-08T08:28:54;20.30;;;8.95;;
55065;SDS011;40964;42.114;24.220;2024-03-08T08:31:19;25.83;;;10.40;;
55065;SDS011;40964;42.114;24.220;2024-03-08T08:33:45;23.67;;;11.77;;
55065;SDS011;40964;42.114;24.220;2024-03-08T08:36:10;22.20;;;10.25;;
55065;SDS011;40964;42.114;24.220;2024-03-08T08:38:36;23.30;;;10.82;;
55065;SDS011;40964;42.114;24.220;2024-03-08T08:41:01;29.13;;;12.00;;
55065;SDS011;40964;42.114;24.220;2024-03-08T08:43:27;31.27;;;12.18;;
55065;SDS011;40964;42.114;24.220;2024-03-08T08:45:53;27.33;;;11.27;;
55065;SDS011;40964;42.114;24.220;2024-03-08T08:48:20;24.20;;;10.98;;
55065;SDS011;40964;42.114;24.220;2024-03-08T08:50:46;27.25;;;10.98;;
55065;SDS011;40964;42.114;24.220;2024-03-08T08:53:12;26.42;;;11.52;;
55065;SDS011;40964;42.114;24.220;2024-03-08T08:55:40;20.60;;;10.07;;
55065;SDS011;40964;42.114;24.220;2024-03-08T08:58:05;22.92;;;10.82;;
55065;SDS011;40964;42.114;24.220;2024-03-08T09:00:32;18.48;;;8.13;;
55065;SDS011;40964;42.114;24.220;2024-03-08T09:02:59;18.08;;;8.52;;
55065;SDS011;40964;42.114;24.220;2024-03-08T09:05:25;16.30;;;8.00;;
55065;SDS011;40964;42.114;24.220;2024-03-08T09:07:51;16.20;;;8.05;;
55065;SDS011;40964;42.114;24.220;2024-03-08T09:10:18;16.95;;;8.25;;
55065;SDS011;40964;42.114;24.220;2024-03-08T09:12:44;16.33;;;7.55;;
55065;SDS011;40964;42.114;24.220;2024-03-08T09:15:09;11.80;;;6.43;;
55065;SDS011;40964;42.114;24.220;2024-03-08T09:17:38;12.98;;;7.13;;
55065;SDS011;40964;42.114;24.220;2024-03-08T09:20:08;13.40;;;7.03;;
55065;SDS011;40964;42.114;24.220;2024-03-08T09:22:35;16.38;;;7.85;;
55065;SDS011;40964;42.114;24.220;2024-03-08T09:25:01;13.93;;;7.22;;
55065;SDS011;40964;42.114;24.220;2024-03-08T09:27:27;17.98;;;8.05;;
55065;SDS011;40964;42.114;24.220;2024-03-08T09:29:53;17.25;;;7.65;;
55065;SDS011;40964;42.114;24.220;2024-03-08T09:32:19;16.63;;;8.10;;
55065;SDS011;40964;42.114;24.220;2024-03-08T09:34:44;15.15;;;6.78;;
55065;SDS011;40964;42.114;24.220;2024-03-08T09:37:10;16.08;;;7.57;;
55065;SDS011;40964;42.114;24.220;2024-03-08T09:39:35;13.65;;;5.93;;
55065;SDS011;40964;42.114;24.220;2024-03-08T09:42:01;10.88;;;5.95;;
55065;SDS011;40964;42.114;24.220;2024-03-08T09:44:26;13.90;;;6.88;;
55065;SDS011;40964;42.114;24.220;2024-03-08T09:46:54;12.15;;;6.85;;
55065;SDS011;40964;42.114;24.220;2024-03-08T09:49:20;13.05;;;6.35;;
55065;SDS011;40964;42.114;24.220;2024-03-08T09:51:46;14.30;;;7.32;;
55065;SDS011;40964;42.114;24.220;2024-03-08T09:54:12;13.48;;;6.75;;
55065;SDS011;40964;42.114;24.220;2024-03-08T09:56:38;13.13;;;6.97;;
55065;SDS011;40964;42.114;24.220;2024-03-08T09:59:09;22.85;;;9.60;;
55065;SDS011;40964;42.114;24.220;2024-03-08T10:01:52;16.00;;;7.40;;
55065;SDS011;40964;42.114;24.220;2024-03-08T10:04:21;12.25;;;6.40;;
55065;SDS011;40964;42.114;24.220;2024-03-08T10:06:47;15.80;;;7.38;;
55065;SDS011;40964;42.114;24.220;2024-03-08T10:09:13;9.70;;;5.35;;
55065;SDS011;40964;42.114;24.220;2024-03-08T10:11:42;12.93;;;6.82;;
55065;SDS011;40964;42.114;24.220;2024-03-08T10:14:11;14.32;;;7.40;;
55065;SDS011;40964;42.114;24.220;2024-03-08T10:16:37;15.65;;;6.72;;
55065;SDS011;40964;42.114;24.220;2024-03-08T10:19:04;13.40;;;6.45;;
55065;SDS011;40964;42.114;24.220;2024-03-08T10:21:31;13.18;;;6.70;;
55065;SDS011;40964;42.114;24.220;2024-03-08T10:23:58;13.75;;;7.15;;
55065;SDS011;40964;42.114;24.220;2024-03-08T10:26:24;14.13;;;6.90;;
55065;SDS011;40964;42.114;24.220;2024-03-08T10:28:51;14.88;;;6.95;;
55065;SDS011;40964;42.114;24.220;2024-03-08T10:31:18;14.77;;;7.32;;
55065;SDS011;40964;42.114;24.220;2024-03-08T10:33:47;19.08;;;8.18;;
55065;SDS011;40964;42.114;24.220;2024-03-08T10:36:14;23.33;;;8.40;;
55065;SDS011;40964;42.114;24.220;2024-03-08T10:38:40;16.88;;;7.38;;
55065;SDS011;40964;42.114;24.220;2024-03-08T10:41:08;12.85;;;6.95;;
55065;SDS011;40964;42.114;24.220;2024-03-08T10:46:31;12.77;;;6.03;;
55065;SDS011;40964;42.114;24.220;2024-03-08T10:49:00;19.88;;;8.55;;
55065;SDS011;40964;42.114;24.220;2024-03-08T10:51:31;18.80;;;8.60;;
55065;SDS011;40964;42.114;24.220;2024-03-08T10:53:57;17.60;;;8.38;;
55065;SDS011;40964;42.114;24.220;2024-03-08T10:56:24;19.30;;;9.00;;
55065;SDS011;40964;42.114;24.220;2024-03-08T10:58:53;23.67;;;11.15;;
55065;SDS011;40964;42.114;24.220;2024-03-08T11:01:20;22.33;;;10.38;;
55065;SDS011;40964;42.114;24.220;2024-03-08T11:03:47;30.45;;;11.57;;
55065;SDS011;40964;42.114;24.220;2024-03-08T11:09:03;22.65;;;10.55;;
55065;SDS011;40964;42.114;24.220;2024-03-08T11:11:38;24.52;;;10.85;;
55065;SDS011;40964;42.114;24.220;2024-03-08T11:14:08;23.17;;;10.57;;
55065;SDS011;40964;42.114;24.220;2024-03-08T11:17:09;19.80;;;9.38;;
55065;SDS011;40964;42.114;24.220;2024-03-08T11:19:34;22.05;;;9.60;;
55065;SDS011;40964;42.114;24.220;2024-03-08T11:22:00;25.48;;;10.27;;
55065;SDS011;40964;42.114;24.220;2024-03-08T11:24:36;18.60;;;9.02;;
55065;SDS011;40964;42.114;24.220;2024-03-08T11:27:05;23.15;;;9.68;;
55065;SDS011;40964;42.114;24.220;2024-03-08T11:34:55;23.80;;;10.57;;
55065;SDS011;40964;42.114;24.220;2024-03-08T11:37:21;25.10;;;11.40;;
55065;SDS011;40964;42.114;24.220;2024-03-08T11:39:47;22.00;;;10.65;;
55065;SDS011;40964;42.114;24.220;2024-03-08T11:42:17;21.67;;;10.50;;
55065;SDS011;40964;42.114;24.220;2024-03-08T11:44:44;21.13;;;10.43;;
55065;SDS011;40964;42.114;24.220;2024-03-08T11:47:12;18.40;;;8.30;;
55065;SDS011;40964;42.114;24.220;2024-03-08T11:49:39;18.17;;;8.75;;
55065;SDS011;40964;42.114;24.220;2024-03-08T11:52:12;18.45;;;8.75;;
55065;SDS011;40964;42.114;24.220;2024-03-08T11:54:38;15.75;;;7.78;;
55065;SDS011;40964;42.114;24.220;2024-03-08T11:57:05;18.13;;;8.75;;
55065;SDS011;40964;42.114;24.220;2024-03-08T11:59:31;11.10;;;6.30;;
55065;SDS011;40964;42.114;24.220;2024-03-08T12:02:01;16.40;;;7.35;;
55065;SDS011;40964;42.114;24.220;2024-03-08T12:04:28;10.73;;;6.20;;
55065;SDS011;40964;42.114;24.220;2024-03-08T12:06:54;9.80;;;5.40;;
55065;SDS011;40964;42.114;24.220;2024-03-08T12:09:19;15.18;;;6.90;;
55065;SDS011;40964;42.114;24.220;2024-03-08T12:11:50;12.45;;;6.82;;
55065;SDS011;40964;42.114;24.220;2024-03-08T12:14:16;14.73;;;6.50;;
55065;SDS011;40964;42.114;24.220;2024-03-08T12:16:42;10.63;;;5.82;;
55065;SDS011;40964;42.114;24.220;2024-03-08T12:19:08;16.38;;;6.97;;
55065;SDS011;40964;42.114;24.220;2024-03-08T12:21:35;13.10;;;6.45;;
55065;SDS011;40964;42.114;24.220;2024-03-08T12:24:02;14.38;;;7.72;;
55065;SDS011;40964;42.114;24.220;2024-03-08T12:26:29;13.43;;;5.93;;
55065;SDS011;40964;42.114;24.220;2024-03-08T12:29:13;11.80;;;6.30;;
55065;SDS011;40964;42.114;24.220;2024-03-08T12:31:45;11.13;;;5.75;;
55065;SDS011;40964;42.114;24.220;2024-03-08T12:34:11;12.18;;;5.90;;
55065;SDS011;40964;42.114;24.220;2024-03-08T12:36:44;12.23;;;6.55;;
55065;SDS011;40964;42.114;24.220;2024-03-08T12:39:15;13.90;;;6.60;;
55065;SDS011;40964;42.114;24.220;2024-03-08T12:41:46;13.95;;;7.07;;
55065;SDS011;40964;42.114;24.220;2024-03-08T12:44:14;11.85;;;6.05;;
55065;SDS011;40964;42.114;24.220;2024-03-08T12:46:39;11.18;;;6.18;;
55065;SDS011;40964;42.114;24.220;2024-03-08T12:49:08;12.38;;;5.47;;
55065;SDS011;40964;42.114;24.220;2024-03-08T12:51:34;9.80;;;5.13;;
55065;SDS011;40964;42.114;24.220;2024-03-08T12:54:00;11.32;;;5.93;;
55065;SDS011;40964;42.114;24.220;2024-03-08T12:56:32;10.40;;;5.78;;
55065;SDS011;40964;42.114;24.220;2024-03-08T12:58:59;22.90;;;9.02;;
55065;SDS011;40964;42.114;24.220;2024-03-08T13:01:25;9.43;;;5.72;;
55065;SDS011;40964;42.114;24.220;2024-03-08T13:03:52;6.45;;;3.22;;
55065;SDS011;40964;42.114;24.220;2024-03-08T13:06:24;8.40;;;4.43;;
55065;SDS011;40964;42.114;24.220;2024-03-08T13:08:52;7.88;;;3.90;;
55065;SDS011;40964;42.114;24.220;2024-03-08T13:11:20;11.38;;;5.65;;
55065;SDS011;40964;42.114;24.220;2024-03-08T13:13:46;11.63;;;5.57;;
55065;SDS011;40964;42.114;24.220;2024-03-08T13:16:11;11.25;;;6.13;;
55065;SDS011;40964;42.114;24.220;2024-03-08T13:18:40;10.73;;;5.03;;
55065;SDS011;40964;42.114;24.220;2024-03-08T13:21:12;9.38;;;5.60;;
55065;SDS011;40964;42.114;24.220;2024-03-08T13:23:40;10.75;;;5.75;;
55065;SDS011;40964;42.114;24.220;2024-03-08T13:26:07;14.68;;;6.10;;
55065;SDS011;40964;42.114;24.220;2024-03-08T13:28:33;10.73;;;5.07;;
55065;SDS011;40964;42.114;24.220;2024-03-08T13:31:05;7.35;;;4.53;;
55065;SDS011;40964;42.114;24.220;2024-03-08T13:33:31;11.05;;;5.30;;
55065;SDS011;40964;42.114;24.220;2024-03-08T13:36:00;11.57;;;5.80;;
55065;SDS011;40964;42.114;24.220;2024-03-08T13:38:26;12.73;;;6.85;;
55065;SDS011;40964;42.114;24.220;2024-03-08T13:40:53;12.70;;;6.72;;
55065;SDS011;40964;42.114;24.220;2024-03-08T13:43:19;12.55;;;6.22;;
55065;SDS011;40964;42.114;24.220;2024-03-08T13:45:44;13.43;;;6.55;;
55065;SDS011;40964;42.114;24.220;2024-03-08T13:48:11;14.38;;;6.90;;
55065;SDS011;40964;42.114;24.220;2024-03-08T13:50:38;16.95;;;6.70;;
55065;SDS011;40964;42.114;24.220;2024-03-08T13:53:03;15.40;;;7.60;;
55065;SDS011;40964;42.114;24.220;2024-03-08T13:55:29;13.98;;;7.75;;
55065;SDS011;40964;42.114;24.220;2024-03-08T13:57:55;15.73;;;7.40;;
55065;SDS011;40964;42.114;24.220;2024-03-08T14:00:22;44.85;;;12.27;;
55065;SDS011;40964;42.114;24.220;2024-03-08T14:02:52;11.57;;;5.80;;
55065;SDS011;40964;42.114;24.220;2024-03-08T14:05:19;13.25;;;6.60;;
55065;SDS011;40964;42.114;24.220;2024-03-08T14:07:47;16.55;;;8.85;;
55065;SDS011;40964;42.114;24.220;2024-03-08T14:10:15;18.45;;;8.55;;
55065;SDS011;40964;42.114;24.220;2024-03-08T14:12:41;17.67;;;9.05;;
55065;SDS011;40964;42.114;24.220;2024-03-08T14:15:08;16.08;;;8.10;;
55065;SDS011;40964;42.114;24.220;2024-03-08T14:17:34;21.10;;;8.98;;
55065;SDS011;40964;42.114;24.220;2024-03-08T14:20:01;20.60;;;8.35;;
55065;SDS011;40964;42.114;24.220;2024-03-08T14:22:26;22.48;;;10.25;;
55065;SDS011;40964;42.114;24.220;2024-03-08T14:24:52;19.73;;;8.68;;